Terminal Aerodrome Forecast
Issued by NWS

Home | Current Version | Previous Version | Text Only | Print | Product List | Glossary On
Versions: 1 2 3 4 5 6 7 8 9 10 11 12 13 14
000
FTUS45 KABQ 072346
TAFFMN
TAF
KFMN 072346Z 0800/0824 01008KT P6SM VCSH SCT080 BKN120
     FM080300 09007KT P6SM SCT120
     FM082200 27010KT P6SM VCSH SCT070 BKN140=

USA.gov is the U.S. government's official web portal to all federal, state and local government web resources and services.